Time;durP1;ratioP1;P1;durP2;ratioP2;P2;SDS_P1;SDS_P2;PMS_P1;PMS_P2;Temp;Humidity;BMP_temperature;BMP_pressure;BME280_temperature;BME280_humidity;BME280_pressure;Samples;Min_cycle;Max_cycle;Signal;HPM_P1;HPM_P2
2021/08/30 00:02:10;;;;;;;5.07;3.08;;;;;;;20.53;62.22;101956.63;5033099;28;20638;-62
2021/08/30 00:04:35;;;;;;;4.87;2.60;;;;;;;20.52;62.26;101953.16;5033583;28;20018;-62
2021/08/30 00:07:00;;;;;;;5.10;2.53;;;;;;;20.53;62.17;101952.16;5033131;28;20322;-63
2021/08/30 00:09:27;;;;;;;4.82;2.58;;;;;;;20.53;62.19;101954.81;5032839;28;20033;-62
2021/08/30 00:11:52;;;;;;;5.38;2.88;;;;;;;20.52;62.21;101960.22;5033484;28;20085;-61
2021/08/30 00:14:18;;;;;;;4.28;2.53;;;;;;;20.52;61.95;101954.94;5033653;28;20075;-62
2021/08/30 00:16:44;;;;;;;6.05;2.88;;;;;;;20.50;61.88;101952.41;5032231;28;20025;-63
2021/08/30 00:19:09;;;;;;;6.13;3.05;;;;;;;20.51;62.30;101956.75;5033408;28;20074;-62
2021/08/30 00:21:34;;;;;;;4.43;2.50;;;;;;;20.50;62.04;101956.84;5033422;28;20401;-63
2021/08/30 00:24:03;;;;;;;5.43;2.87;;;;;;;20.51;61.81;101953.25;5032370;28;20119;-61
2021/08/30 00:26:28;;;;;;;5.97;3.10;;;;;;;20.50;62.10;101954.22;5033185;28;20298;-62
2021/08/30 00:28:56;;;;;;;4.40;2.67;;;;;;;20.50;61.89;101946.28;5032166;28;20052;-62
2021/08/30 00:31:25;;;;;;;4.82;2.80;;;;;;;20.50;61.90;101951.56;5033250;28;20025;-62
2021/08/30 00:33:52;;;;;;;5.30;2.80;;;;;;;20.48;62.12;101946.38;5032752;28;20029;-62
2021/08/30 00:36:17;;;;;;;6.03;3.20;;;;;;;20.48;62.03;101943.72;5032274;28;20032;-62
2021/08/30 00:38:42;;;;;;;5.50;3.23;;;;;;;20.46;61.98;101943.00;5032823;28;20026;-63
2021/08/30 00:41:07;;;;;;;5.70;3.10;;;;;;;20.46;61.67;101946.50;5032852;28;20281;-63
2021/08/30 00:43:33;;;;;;;5.43;2.95;;;;;;;20.48;62.01;101949.03;5032098;28;20065;-62
2021/08/30 00:46:00;;;;;;;5.63;3.05;;;;;;;20.48;61.99;101943.72;5032799;28;20388;-62
2021/08/30 00:48:25;;;;;;;6.80;3.13;;;;;;;20.47;62.08;101949.97;5032765;28;20044;-62
2021/08/30 00:50:51;;;;;;;5.43;2.83;;;;;;;20.47;61.91;101949.97;5031763;28;20029;-62
2021/08/30 00:53:16;;;;;;;4.60;3.00;;;;;;;20.46;62.12;101957.09;5032313;28;20119;-63
2021/08/30 00:55:41;;;;;;;6.03;2.92;;;;;;;20.47;62.04;101948.19;5032842;28;20270;-63
2021/08/30 00:58:07;;;;;;;5.50;3.00;;;;;;;20.47;61.97;101949.97;5031793;28;20104;-62
2021/08/30 01:00:32;;;;;;;5.85;3.10;;;;;;;20.46;62.02;101950.94;5032626;28;20100;-62
2021/08/30 01:02:57;;;;;;;5.32;3.00;;;;;;;20.46;61.84;101957.09;5032168;28;20417;-62
2021/08/30 01:05:23;;;;;;;5.00;3.07;;;;;;;20.45;62.10;101949.25;5031658;28;20112;-63
2021/08/30 01:08:12;;;;;;;5.22;3.10;;;;;;;20.45;61.80;101949.25;5032021;28;20263;-63
2021/08/30 01:11:13;;;;;;;4.95;2.78;;;;;;;20.45;61.80;101959.84;5032256;28;20025;-62
2021/08/30 01:13:50;;;;;;;5.85;3.35;;;;;;;20.44;61.95;101964.31;5018460;28;20427;-63
2021/08/30 01:16:19;;;;;;;6.15;3.38;;;;;;;20.45;61.80;101965.13;5032585;28;20039;-62
2021/08/30 01:18:49;;;;;;;5.68;3.28;;;;;;;20.44;61.87;101966.94;5031399;28;20121;-62
2021/08/30 01:21:20;;;;;;;5.85;3.38;;;;;;;20.45;61.93;101965.13;5032131;28;20536;-62
2021/08/30 01:23:52;;;;;;;5.80;3.13;;;;;;;20.44;61.81;101966.94;5031987;28;20022;-62
2021/08/30 01:26:18;;;;;;;5.35;3.20;;;;;;;20.43;61.99;101965.25;5031543;28;20025;-62
2021/08/30 01:29:00;;;;;;;5.05;3.10;;;;;;;20.44;62.01;101960.78;5031744;28;20449;-62
2021/08/30 01:31:34;;;;;;;5.38;3.10;;;;;;;20.42;61.87;101966.19;5032374;28;20029;-62
2021/08/30 01:33:59;;;;;;;6.45;3.28;;;;;;;20.42;62.00;101968.84;5031286;28;20072;-62
2021/08/30 01:36:26;;;;;;;5.65;3.28;;;;;;;20.43;61.83;101967.06;5032287;28;20490;-63
2021/08/30 01:38:58;;;;;;;5.97;3.33;;;;;;;20.43;61.99;101967.91;5031819;28;20021;-62
2021/08/30 01:41:24;;;;;;;5.07;3.22;;;;;;;20.42;61.83;101973.31;5031567;28;20033;-62
2021/08/30 01:43:50;;;;;;;5.45;3.08;;;;;;;20.42;61.84;101974.16;5031966;28;20055;-62
2021/08/30 01:46:16;;;;;;;5.18;3.10;;;;;;;20.42;61.82;101973.31;5031359;28;20029;-61
2021/08/30 01:48:49;;;;;;;5.00;2.95;;;;;;;20.41;61.95;101964.53;5031913;28;20358;-61
2021/08/30 01:51:21;;;;;;;5.57;3.30;;;;;;;20.41;61.70;101963.66;5032103;28;20026;-62
2021/08/30 01:53:47;;;;;;;5.80;3.20;;;;;;;20.42;61.73;101973.31;5030671;28;20041;-62
2021/08/30 01:56:13;;;;;;;4.93;2.72;;;;;;;20.41;61.87;101966.31;5031906;28;20422;-61
2021/08/30 02:01:04;;;;;;;5.90;3.25;;;;;;;20.41;61.94;101971.59;5030830;28;20508;-62
2021/08/30 02:03:31;;;;;;;5.57;3.30;;;;;;;20.40;61.91;101970.78;5031919;28;20420;-62
2021/08/30 02:06:08;;;;;;;6.00;3.15;;;;;;;20.39;61.78;101965.59;5031385;28;20052;-62
2021/08/30 02:08:34;;;;;;;6.18;3.65;;;;;;;20.38;61.89;101964.75;5031240;28;20022;-62
2021/08/30 02:11:06;;;;;;;6.40;3.10;;;;;;;20.39;62.11;101961.13;5031484;28;20013;-62
2021/08/30 02:13:32;;;;;;;4.95;3.10;;;;;;;20.38;61.99;101967.41;5031986;28;20068;-62
2021/08/30 02:15:59;;;;;;;6.38;3.25;;;;;;;20.37;62.00;101960.41;5030844;28;20489;-63
2021/08/30 02:18:44;;;;;;;5.30;3.22;;;;;;;20.39;61.70;101969.06;5031647;28;20025;-62
2021/08/30 02:21:25;;;;;;;5.60;3.45;;;;;;;20.39;61.88;101962.94;5032620;28;20034;-62
2021/08/30 02:24:01;;;;;;;5.40;3.30;;;;;;;20.39;61.75;101965.59;5034891;28;20087;-62
2021/08/30 02:26:36;;;;;;;5.50;3.50;;;;;;;20.38;61.65;101961.28;5035585;28;20028;-61
2021/08/30 02:29:03;;;;;;;5.30;3.30;;;;;;;20.37;61.77;101960.41;5034361;28;20026;-63
2021/08/30 02:31:31;;;;;;;5.90;3.63;;;;;;;20.37;61.87;101959.56;5035719;28;20052;-62
2021/08/30 02:33:59;;;;;;;5.40;3.22;;;;;;;20.35;61.87;101951.75;5034995;28;20477;-62
2021/08/30 02:36:26;;;;;;;5.35;3.53;;;;;;;20.36;61.86;101953.44;5034952;28;20085;-62
2021/08/30 02:38:52;;;;;;;5.05;2.85;;;;;;;20.37;61.98;101954.28;5035008;28;20032;-62
2021/08/30 02:41:19;;;;;;;5.88;3.45;;;;;;;20.35;61.83;101953.56;5035313;28;20030;-63
2021/08/30 02:43:46;;;;;;;5.65;3.13;;;;;;;20.36;61.72;101950.78;5033980;28;20430;-63
2021/08/30 02:46:12;;;;;;;5.38;3.28;;;;;;;20.36;61.78;101949.94;5034989;28;20152;-62
2021/08/30 02:48:40;;;;;;;7.00;3.05;;;;;;;20.37;61.95;101959.56;5035147;28;20033;-62
2021/08/30 02:51:05;;;;;;;5.80;3.85;;;;;;;20.34;61.93;101951.84;5034176;28;20469;-62
2021/08/30 02:53:32;;;;;;;5.97;3.25;;;;;;;20.36;61.78;101963.16;5034877;28;20041;-62
2021/08/30 02:55:57;;;;;;;5.45;3.42;;;;;;;20.36;61.92;101955.22;5034608;28;20061;-62
2021/08/30 02:58:24;;;;;;;5.57;3.25;;;;;;;20.35;61.91;101958.84;5034004;28;20061;-61
2021/08/30 03:00:49;;;;;;;6.07;3.08;;;;;;;20.34;61.59;101952.69;5034472;28;20429;-61
2021/08/30 03:03:15;;;;;;;5.10;3.40;;;;;;;20.35;61.76;101964.97;5034781;28;20030;-63
2021/08/30 03:05:43;;;;;;;5.95;3.47;;;;;;;20.34;61.82;101962.44;5033756;28;20033;-62
2021/08/30 03:08:08;;;;;;;6.05;3.17;;;;;;;20.35;61.75;101956.19;5034434;28;20029;-62
2021/08/30 03:10:34;;;;;;;5.38;3.25;;;;;;;20.36;61.71;101952.56;5033775;28;20036;-62
2021/08/30 03:13:03;;;;;;;6.18;2.92;;;;;;;20.34;61.68;101946.56;5034192;28;20040;-61
2021/08/30 03:15:30;;;;;;;5.50;3.25;;;;;;;20.35;61.65;101949.09;5034743;28;20033;-63
2021/08/30 03:17:56;;;;;;;6.40;3.60;;;;;;;20.35;61.73;101954.38;5033315;28;20022;-62
2021/08/30 03:20:25;;;;;;;5.78;3.25;;;;;;;20.34;61.56;101949.19;5034548;28;20397;-62
2021/08/30 03:22:51;;;;;;;5.72;3.35;;;;;;;20.35;61.80;101950.91;5033994;28;20112;-62
2021/08/30 03:25:19;;;;;;;4.88;3.22;;;;;;;20.34;61.87;101952.69;5033615;28;20026;-62
2021/08/30 03:27:46;;;;;;;5.95;3.35;;;;;;;20.34;61.60;101944.75;5034170;28;20108;-62
2021/08/30 03:30:13;;;;;;;5.88;3.58;;;;;;;20.34;62.00;101947.38;5034336;28;20025;-62
2021/08/30 03:32:41;;;;;;;5.70;3.35;;;;;;;20.33;61.62;101953.66;5033548;28;20022;-62
2021/08/30 03:35:09;;;;;;;5.47;3.35;;;;;;;20.34;61.93;101952.69;5033925;28;20025;-62
2021/08/30 03:37:35;;;;;;;5.10;3.30;;;;;;;20.30;61.58;101952.06;5034158;28;20108;-62
2021/08/30 03:40:02;;;;;;;5.10;2.95;;;;;;;20.33;61.84;101953.66;5032910;28;20120;-62
2021/08/30 03:42:28;;;;;;;5.93;3.30;;;;;;;20.34;61.82;101954.50;5034229;28;20450;-61
2021/08/30 03:44:56;;;;;;;5.68;3.40;;;;;;;20.33;61.83;101960.75;5033818;28;20057;-62
2021/08/30 03:47:22;;;;;;;5.80;3.00;;;;;;;20.32;61.70;101953.78;5033379;28;20041;-62
2021/08/30 03:49:49;;;;;;;5.68;3.50;;;;;;;20.33;61.90;101956.31;5033675;28;20026;-62
2021/08/30 03:52:16;;;;;;;5.40;3.20;;;;;;;20.33;61.50;101953.66;5033818;28;20038;-63
2021/08/30 03:54:42;;;;;;;6.40;3.42;;;;;;;20.31;61.79;101950.25;5032995;28;20034;-63
2021/08/30 03:57:13;;;;;;;6.07;3.78;;;;;;;20.30;61.86;101943.28;5033550;28;20385;-62
2021/08/30 03:59:39;;;;;;;7.05;3.45;;;;;;;20.31;61.86;101942.31;5033543;28;20087;-63
2021/08/30 04:02:07;;;;;;;5.40;3.35;;;;;;;20.29;61.66;101945.06;5033162;28;20533;-63
2021/08/30 04:04:33;;;;;;;5.07;3.00;;;;;;;20.32;61.68;101945.84;5033583;28;20018;-62
2021/08/30 04:07:03;;;;;;;5.68;3.50;;;;;;;20.32;61.79;101940.53;5032486;28;20022;-62
2021/08/30 04:09:29;;;;;;;5.85;3.45;;;;;;;20.31;61.65;101947.63;5033678;28;20033;-62
2021/08/30 04:11:55;;;;;;;6.82;3.55;;;;;;;20.30;61.68;101938.84;5033445;28;20383;-62
2021/08/30 04:14:22;;;;;;;5.13;3.00;;;;;;;20.31;61.65;101937.03;5032825;28;20047;-62
2021/08/30 04:16:47;;;;;;;5.50;3.40;;;;;;;20.29;61.62;101939.78;5033081;28;20059;-62
2021/08/30 04:19:13;;;;;;;5.40;3.63;;;;;;;20.30;61.55;101941.47;5033325;28;20087;-62
2021/08/30 04:21:38;;;;;;;5.53;3.08;;;;;;;20.27;61.78;101939.06;5032482;28;20402;-63
2021/08/30 04:24:04;;;;;;;5.00;3.22;;;;;;;20.27;61.85;101939.06;5033122;28;20025;-63
2021/08/30 04:26:29;;;;;;;5.75;3.60;;;;;;;20.29;61.66;101942.44;5032950;28;20470;-62
2021/08/30 04:28:55;;;;;;;5.57;3.42;;;;;;;20.29;61.95;101936.31;5032029;28;20029;-62
2021/08/30 04:31:20;;;;;;;5.63;3.15;;;;;;;20.28;61.54;101940.75;5033084;28;20409;-61
2021/08/30 04:33:45;;;;;;;5.68;3.40;;;;;;;20.28;61.73;101935.47;5032791;28;20029;-62
2021/08/30 04:36:11;;;;;;;6.60;3.40;;;;;;;20.26;61.96;101936.53;5032196;28;20032;-62
2021/08/30 04:38:36;;;;;;;5.57;3.33;;;;;;;20.28;61.73;101945.19;5032899;28;20932;-63
2021/08/30 04:41:04;;;;;;;5.80;3.20;;;;;;;20.28;61.82;101947.84;5032909;28;20057;-62
2021/08/30 04:43:29;;;;;;;6.10;3.60;;;;;;;20.28;61.36;101945.19;5031500;28;20074;-62
2021/08/30 04:45:54;;;;;;;5.43;3.53;;;;;;;20.28;61.72;101947.84;5032466;28;20068;-63
2021/08/30 04:48:19;;;;;;;5.47;3.07;;;;;;;20.27;61.75;101954.09;5032635;28;20025;-62
2021/08/30 04:50:45;;;;;;;5.27;3.23;;;;;;;20.25;61.61;101950.69;5031532;28;20298;-62
2021/08/30 04:53:10;;;;;;;6.45;3.75;;;;;;;20.26;61.73;101955.06;5032539;28;20298;-63
2021/08/30 04:55:36;;;;;;;5.88;3.42;;;;;;;20.25;61.77;101951.56;5032819;28;20079;-63
2021/08/30 04:58:04;;;;;;;5.95;3.70;;;;;;;20.27;61.62;101954.09;5031718;28;20034;-62
2021/08/30 05:00:29;;;;;;;6.30;3.58;;;;;;;20.26;61.63;101961.19;5032467;28;20021;-63
2021/08/30 05:02:55;;;;;;;5.15;3.15;;;;;;;20.24;61.49;101957.81;5032169;28;20022;-63
2021/08/30 05:05:23;;;;;;;5.10;3.45;;;;;;;20.26;61.76;101961.19;5031762;28;20070;-62
2021/08/30 05:07:48;;;;;;;5.68;4.05;;;;;;;20.27;61.72;101956.75;5032308;28;20536;-62
2021/08/30 05:10:14;;;;;;;6.47;3.65;;;;;;;20.26;61.59;101961.19;5031818;28;20018;-63
2021/08/30 05:12:39;;;;;;;5.43;3.50;;;;;;;20.26;61.79;101970.94;5032454;28;20470;-62
2021/08/30 05:15:05;;;;;;;5.75;3.75;;;;;;;20.26;61.49;101963.84;5032112;28;20021;-62
2021/08/30 05:17:31;;;;;;;6.18;3.60;;;;;;;20.26;61.70;101965.63;5031594;28;20041;-62
2021/08/30 05:19:57;;;;;;;5.18;3.28;;;;;;;20.23;61.93;101964.06;5031723;28;20056;-62
2021/08/30 05:22:22;;;;;;;5.55;3.60;;;;;;;20.25;61.41;101964.81;5032414;28;20033;-61
2021/08/30 05:24:50;;;;;;;6.20;3.78;;;;;;;20.23;61.55;101969.34;5031148;28;20024;-61
2021/08/30 05:27:16;;;;;;;6.30;3.50;;;;;;;20.25;61.67;101967.44;5032292;28;20021;-62
2021/08/30 05:29:41;;;;;;;5.40;3.50;;;;;;;20.26;61.68;101971.78;5032189;28;20040;-61
2021/08/30 05:32:07;;;;;;;5.57;3.40;;;;;;;20.23;61.75;101966.69;5030965;28;20031;-61
2021/08/30 05:34:32;;;;;;;5.30;3.47;;;;;;;20.26;61.74;101974.41;5031954;28;20432;-60
2021/08/30 05:36:57;;;;;;;6.03;3.45;;;;;;;20.27;61.99;101973.47;5032023;28;20032;-61
2021/08/30 05:39:23;;;;;;;5.37;3.10;;;;;;;20.24;61.70;101964.91;5031332;28;20354;-63
2021/08/30 05:41:48;;;;;;;5.80;3.30;;;;;;;20.26;61.44;101973.59;5031811;28;20275;-61
2021/08/30 05:44:13;;;;;;;6.22;3.80;;;;;;;20.27;61.87;101973.47;5031962;28;20500;-63
2021/08/30 05:46:39;;;;;;;6.03;3.50;;;;;;;20.28;61.83;101979.59;5030911;28;20493;-62
2021/08/30 05:49:04;;;;;;;5.65;3.70;;;;;;;20.27;61.51;101978.75;5031549;28;20520;-62
2021/08/30 05:51:29;;;;;;;6.38;3.40;;;;;;;20.27;61.48;101977.94;5032017;28;20029;-62
2021/08/30 05:53:54;;;;;;;6.63;3.65;;;;;;;20.28;62.23;101983.13;5030471;28;20136;-61
2021/08/30 05:56:20;;;;;;;6.17;3.50;;;;;;;20.29;61.91;101982.13;5033300;28;20040;-61
2021/08/30 05:58:45;;;;;;;6.43;3.70;;;;;;;20.30;62.20;101986.50;5035600;28;20773;-61
2021/08/30 06:01:11;;;;;;;5.68;3.30;;;;;;;20.33;62.04;101982.78;5035046;28;20040;-59
2021/08/30 06:03:36;;;;;;;5.90;3.67;;;;;;;20.33;62.22;101988.06;5035755;28;20087;-61
2021/08/30 06:06:04;;;;;;;6.03;3.83;;;;;;;20.33;62.25;101993.38;5035635;28;20030;-61
2021/08/30 06:08:31;;;;;;;6.20;3.45;;;;;;;20.34;62.37;101980.97;5034983;28;20026;-64
2021/08/30 06:10:57;;;;;;;5.82;3.53;;;;;;;20.34;62.40;101981.81;5035508;28;20031;-60
2021/08/30 06:13:24;;;;;;;6.60;3.53;;;;;;;20.33;62.09;101985.44;5035081;28;20024;-61
2021/08/30 06:15:50;;;;;;;6.45;3.40;;;;;;;20.30;62.07;101983.00;5035122;28;20100;-63
2021/08/30 06:18:15;;;;;;;7.72;3.92;;;;;;;20.30;62.10;101991.78;5036037;28;20124;-62
2021/08/30 06:20:42;;;;;;;9.73;3.92;;;;;;;20.33;62.20;102000.44;5034943;28;20552;-61
2021/08/30 06:23:07;;;;;;;7.95;3.95;;;;;;;20.32;62.33;101990.84;5035327;28;20025;-61
2021/08/30 06:25:32;;;;;;;6.53;3.90;;;;;;;20.33;62.15;101995.16;5035256;28;20037;-63
2021/08/30 06:28:00;;;;;;;6.78;4.30;;;;;;;20.29;62.48;101990.06;5034695;28;20044;-61
2021/08/30 06:30:26;;;;;;;6.22;3.60;;;;;;;20.35;62.47;102001.19;5035542;28;20026;-61
2021/08/30 06:32:51;;;;;;;7.03;4.18;;;;;;;20.34;62.32;102005.63;5036034;28;20028;-63
2021/08/30 06:35:17;;;;;;;7.88;3.95;;;;;;;20.35;62.18;101996.75;5035508;28;20021;-63
2021/08/30 06:37:42;;;;;;;5.88;3.50;;;;;;;20.35;62.29;101995.91;5036035;28;20022;-64
2021/08/30 06:40:11;;;;;;;6.55;3.78;;;;;;;20.38;62.28;102001.81;5036787;28;20048;-61
2021/08/30 06:42:37;;;;;;;6.47;3.85;;;;;;;20.38;62.43;102004.47;5035337;28;20030;-64
2021/08/30 06:45:04;;;;;;;6.47;3.30;;;;;;;20.37;62.14;102000.13;5036133;28;20018;-63
2021/08/30 06:47:29;;;;;;;6.28;3.90;;;;;;;20.41;62.09;102000.72;5035184;28;20022;-63
2021/08/30 06:49:55;;;;;;;6.38;3.60;;;;;;;20.40;62.33;101997.25;5035620;28;20503;-62
2021/08/30 06:52:23;;;;;;;5.93;3.60;;;;;;;20.40;62.54;101999.06;5035481;28;20042;-61
2021/08/30 06:54:49;;;;;;;8.93;4.25;;;;;;;20.40;62.50;101999.91;5035451;28;20086;-62
2021/08/30 06:57:15;;;;;;;8.32;3.90;;;;;;;20.42;62.30;102005.91;5034448;28;20029;-61
2021/08/30 06:59:46;;;;;;;6.65;3.90;;;;;;;20.42;62.36;102005.91;5035035;28;20026;-62
2021/08/30 07:02:12;;;;;;;7.95;4.35;;;;;;;20.43;62.33;101997.03;5035124;28;20018;-62
2021/08/30 07:04:37;;;;;;;7.73;3.70;;;;;;;20.44;62.42;101995.22;5034894;28;20335;-62
2021/08/30 07:07:05;;;;;;;6.20;4.00;;;;;;;20.45;62.41;102002.22;5034775;28;20282;-63
2021/08/30 07:09:30;;;;;;;7.25;3.92;;;;;;;20.43;62.70;101999.69;5035174;28;20132;-63
2021/08/30 07:12:05;;;;;;;6.40;3.90;;;;;;;20.41;62.61;101995.44;5033917;28;20021;-62
2021/08/30 07:14:30;;;;;;;8.20;3.72;;;;;;;20.43;62.55;101996.19;5035198;28;20263;-64
2021/08/30 07:16:55;;;;;;;8.13;3.95;;;;;;;20.44;62.34;101992.56;5037100;28;20029;-63
2021/08/30 07:19:21;;;;;;;6.80;4.13;;;;;;;20.40;62.28;101985.81;5038682;28;20041;-63
2021/08/30 07:21:46;;;;;;;8.80;4.35;;;;;;;20.43;62.31;101991.72;5037594;28;20316;-64
2021/08/30 07:24:11;;;;;;;7.83;4.10;;;;;;;20.44;62.57;101995.22;5036839;28;20112;-63
2021/08/30 07:26:36;;;;;;;6.50;4.07;;;;;;;20.45;62.62;101991.63;5038788;28;20293;-62
2021/08/30 07:29:03;;;;;;;9.50;5.00;;;;;;;20.43;62.37;101998.84;5034556;28;20030;-62
2021/08/30 07:31:28;;;;;;;7.53;4.75;;;;;;;20.42;62.38;102000.63;5034152;28;20049;-63
2021/08/30 07:33:55;;;;;;;7.60;3.90;;;;;;;20.43;62.63;101997.03;5034809;28;20048;-63
2021/08/30 07:36:23;;;;;;;9.35;4.57;;;;;;;20.44;62.57;102000.50;5035712;28;20029;-61
2021/08/30 07:38:48;;;;;;;7.13;3.92;;;;;;;20.47;62.55;102008.22;5034041;28;20024;-62
2021/08/30 07:41:16;;;;;;;7.97;4.40;;;;;;;20.48;62.53;102005.47;5034495;28;20105;-62
2021/08/30 07:43:42;;;;;;;8.50;4.13;;;;;;;20.50;62.59;102002.72;5033935;28;20040;-62
2021/08/30 07:46:07;;;;;;;8.27;3.97;;;;;;;20.52;62.21;102007.91;5033168;28;20030;-62
2021/08/30 07:48:38;;;;;;;8.25;4.85;;;;;;;20.54;62.57;102008.66;5034220;28;20203;-60
2021/08/30 07:51:25;;;;;;;6.85;4.45;;;;;;;20.52;62.72;102007.91;5033659;28;20025;-62
2021/08/30 07:53:51;;;;;;;6.78;4.25;;;;;;;20.55;62.73;102016.44;5032860;28;20073;-65
2021/08/30 07:56:16;;;;;;;7.90;4.20;;;;;;;20.56;62.66;102012.84;5033891;28;20064;-61
2021/08/30 07:58:42;;;;;;;6.20;3.78;;;;;;;20.59;62.68;102014.44;5034128;28;20518;-66
2021/08/30 08:01:07;;;;;;;7.30;5.15;;;;;;;20.60;62.45;102011.69;5033556;28;20033;-63
2021/08/30 08:03:35;;;;;;;7.65;4.20;;;;;;;20.63;62.68;102018.53;5034940;28;20052;-62
2021/08/30 08:06:06;;;;;;;8.18;4.47;;;;;;;20.61;62.83;102013.34;5032970;28;20476;-62
2021/08/30 08:08:31;;;;;;;10.93;4.38;;;;;;;20.61;62.92;102023.94;5033631;28;20037;-64
2021/08/30 08:10:57;;;;;;;8.00;4.50;;;;;;;20.62;62.69;102016.88;5034289;28;20347;-63
2021/08/30 08:13:26;;;;;;;7.53;4.55;;;;;;;20.61;62.90;102023.94;5033347;28;20022;-64
2021/08/30 08:15:52;;;;;;;8.52;4.30;;;;;;;20.60;62.83;102019.63;5034125;28;20029;-63
2021/08/30 08:18:17;;;;;;;7.03;4.45;;;;;;;20.60;62.80;102018.75;5033162;28;20100;-65
2021/08/30 08:20:43;;;;;;;6.82;4.47;;;;;;;20.60;63.06;102016.13;5032765;28;20048;-63
2021/08/30 08:23:08;;;;;;;6.57;4.47;;;;;;;20.61;62.91;102023.94;5033455;28;20037;-60
2021/08/30 08:25:33;;;;;;;7.40;4.10;;;;;;;20.59;62.74;102017.94;5033220;28;20025;-63
2021/08/30 08:28:08;;;;;;;6.32;4.20;;;;;;;20.62;62.91;102023.00;5033513;28;20309;-66
2021/08/30 08:30:33;;;;;;;6.40;4.00;;;;;;;20.65;62.89;102024.63;5033921;28;20078;-65
2021/08/30 08:32:59;;;;;;;7.32;4.13;;;;;;;20.66;63.06;102021.00;5034502;28;20104;-65
2021/08/30 08:35:25;;;;;;;7.47;4.30;;;;;;;20.68;62.87;102034.13;5033148;28;20029;-64
2021/08/30 08:37:50;;;;;;;6.38;4.30;;;;;;;20.68;62.93;102031.47;5035187;28;20025;-64
2021/08/30 08:40:16;;;;;;;9.00;4.60;;;;;;;20.68;62.77;102029.69;5034718;28;20424;-65
2021/08/30 08:42:43;;;;;;;7.53;4.40;;;;;;;20.70;62.81;102022.47;5034272;28;20103;-65
2021/08/30 08:45:12;;;;;;;8.55;4.85;;;;;;;20.68;62.93;102029.69;5034876;28;20022;-64
2021/08/30 08:47:39;;;;;;;6.75;4.43;;;;;;;20.71;62.92;102028.63;5035142;28;20081;-65
2021/08/30 08:50:10;;;;;;;8.45;4.55;;;;;;;20.72;62.89;102030.31;5033712;28;20021;-65
2021/08/30 08:52:36;;;;;;;7.50;4.80;;;;;;;20.72;63.01;102031.16;5034081;28;20489;-64
2021/08/30 08:55:02;;;;;;;8.73;4.80;;;;;;;20.73;62.95;102021.38;5034178;28;20034;-65
2021/08/30 08:57:27;;;;;;;7.57;4.53;;;;;;;20.74;62.92;102028.38;5034245;28;20083;-64
2021/08/30 09:00:01;;;;;;;6.05;4.00;;;;;;;20.75;62.93;102032.75;5032732;28;20025;-64
2021/08/30 09:02:31;;;;;;;6.72;5.00;;;;;;;20.73;62.83;102030.19;5031904;28;20053;-63
2021/08/30 09:05:06;;;;;;;7.22;4.30;;;;;;;20.71;63.02;102028.63;5032436;28;20029;-65
2021/08/30 09:07:36;;;;;;;6.07;3.95;;;;;;;20.73;62.80;102026.69;5033012;28;20388;-62
2021/08/30 09:10:03;;;;;;;7.38;4.35;;;;;;;20.72;62.83;102031.16;5032058;28;20029;-63
2021/08/30 09:12:29;;;;;;;8.20;4.65;;;;;;;20.74;62.78;102033.69;5032895;28;20034;-66
2021/08/30 09:14:55;;;;;;;6.47;4.47;;;;;;;20.76;62.99;102035.28;5032385;28;20024;-63
2021/08/30 09:17:20;;;;;;;6.93;4.28;;;;;;;20.79;62.84;102031.53;5032127;28;20021;-63
2021/08/30 09:19:53;;;;;;;6.85;4.53;;;;;;;20.79;62.88;102015.63;5033842;28;20088;-68
2021/08/30 09:22:28;;;;;;;8.15;4.45;;;;;;;20.84;62.73;102018.81;5034419;28;20017;-64
2021/08/30 09:25:03;;;;;;;7.00;4.65;;;;;;;20.84;62.80;102011.69;5032914;28;20109;-64
2021/08/30 09:27:34;;;;;;;6.40;4.53;;;;;;;20.86;62.49;102005.44;5032542;28;20029;-65
2021/08/30 09:30:03;;;;;;;6.90;4.32;;;;;;;20.84;62.49;102009.06;5032914;28;20432;-65
2021/08/30 09:32:34;;;;;;;7.05;4.43;;;;;;;20.87;62.75;102017.72;5032083;28;20040;-65
2021/08/30 09:35:01;;;;;;;7.55;4.20;;;;;;;20.88;62.75;102019.41;5032389;28;20496;-65
2021/08/30 09:37:27;;;;;;;7.32;4.22;;;;;;;20.86;62.76;102016.06;5031635;28;20030;-64
2021/08/30 09:39:58;;;;;;;6.78;4.30;;;;;;;20.88;62.71;102014.97;5031973;28;20025;-65
2021/08/30 09:42:26;;;;;;;6.75;4.45;;;;;;;20.85;62.86;102020.47;5032088;28;20029;-63
2021/08/30 09:44:52;;;;;;;7.20;3.83;;;;;;;20.84;62.53;102019.66;5031256;28;20026;-65
2021/08/30 09:47:21;;;;;;;6.88;4.60;;;;;;;20.87;62.40;102023.03;5031090;28;20037;-64
2021/08/30 09:49:51;;;;;;;7.82;4.20;;;;;;;20.87;62.58;102023.88;5032122;28;20025;-63
2021/08/30 09:52:20;;;;;;;7.55;4.75;;;;;;;20.87;62.48;102023.03;5031607;28;20041;-65
2021/08/30 09:54:46;;;;;;;7.13;4.80;;;;;;;20.86;62.63;102024.84;5032122;28;20045;-65
2021/08/30 09:57:13;;;;;;;6.25;4.38;;;;;;;20.88;62.40;102022.06;5032800;28;20425;-66
2021/08/30 09:59:42;;;;;;;5.97;3.97;;;;;;;20.87;62.48;102023.03;5032009;28;20476;-64
2021/08/30 10:02:10;;;;;;;7.07;4.53;;;;;;;20.88;62.55;102017.59;5032661;28;20049;-66
2021/08/30 10:04:37;;;;;;;7.55;4.97;;;;;;;20.87;62.56;102025.66;5032391;28;20466;-65
2021/08/30 10:07:03;;;;;;;9.68;4.05;;;;;;;20.87;62.62;102018.59;5031204;28;20036;-63
2021/08/30 10:09:30;;;;;;;6.82;4.35;;;;;;;20.86;62.41;102016.88;5031946;28;20032;-62
2021/08/30 10:11:56;;;;;;;7.05;4.07;;;;;;;20.85;62.39;102012.53;5031625;28;20044;-65
2021/08/30 10:14:29;;;;;;;8.95;4.47;;;;;;;20.85;62.53;102017.84;5031237;28;20030;-63
2021/08/30 10:16:56;;;;;;;9.77;4.47;;;;;;;20.86;62.59;102019.53;5031646;28;20025;-65
2021/08/30 10:19:30;;;;;;;7.03;4.45;;;;;;;20.86;62.50;102019.53;5031880;28;20025;-63
2021/08/30 10:21:57;;;;;;;6.47;4.20;;;;;;;20.89;62.43;102015.81;5031595;28;20493;-63
2021/08/30 10:24:23;;;;;;;6.80;4.30;;;;;;;20.89;62.49;102016.66;5032116;28;20044;-62
2021/08/30 10:26:49;;;;;;;6.78;4.38;;;;;;;20.91;62.47;102013.91;5031162;28;20030;-64
2021/08/30 10:29:18;;;;;;;8.45;4.78;;;;;;;20.91;62.30;102006.78;5031853;28;20030;-62
2021/08/30 10:31:54;;;;;;;8.02;4.50;;;;;;;20.93;62.21;102007.50;5031585;28;20424;-62
2021/08/30 10:34:33;;;;;;;9.18;4.53;;;;;;;20.91;62.32;102009.44;5030492;28;20500;-65
2021/08/30 10:37:00;;;;;;;6.93;4.32;;;;;;;20.91;62.18;102020.03;5031394;28;20112;-61
2021/08/30 10:39:42;;;;;;;7.05;4.40;;;;;;;20.90;62.17;102014.84;5031520;28;20033;-63
2021/08/30 10:42:12;;;;;;;6.55;4.40;;;;;;;20.90;62.41;102014.84;5031462;28;20041;-63
2021/08/30 10:45:03;;;;;;;7.68;4.57;;;;;;;20.91;62.67;102008.59;5034949;28;20114;-61
2021/08/30 10:47:37;;;;;;;7.50;4.72;;;;;;;20.93;62.43;102007.50;5035194;28;20033;-62
2021/08/30 10:50:06;;;;;;;7.25;4.80;;;;;;;20.95;62.71;102013.56;5034404;28;20461;-61
2021/08/30 10:52:40;;;;;;;8.55;4.70;;;;;;;20.96;62.56;102009.91;5034909;28;20054;-62
2021/08/30 10:55:19;;;;;;;7.70;4.78;;;;;;;20.98;62.44;102013.31;5033739;28;20021;-63
2021/08/30 10:57:52;;;;;;;10.43;4.90;;;;;;;20.98;62.78;102018.63;5035189;28;20040;-61
2021/08/30 11:00:29;;;;;;;9.00;4.75;;;;;;;20.99;62.98;102017.66;5035097;28;20134;-61
2021/08/30 11:02:55;;;;;;;7.05;4.70;;;;;;;20.95;63.02;102000.31;5034041;28;20106;-58
2021/08/30 11:05:28;;;;;;;8.95;4.95;;;;;;;20.97;62.75;102008.13;5034722;28;20477;-61
2021/08/30 11:07:54;;;;;;;8.05;4.90;;;;;;;20.96;62.75;102007.28;5034761;28;20084;-62
2021/08/30 11:10:23;;;;;;;6.45;4.22;;;;;;;20.96;62.98;102012.56;5034575;28;20025;-59
2021/08/30 11:12:48;;;;;;;9.10;4.35;;;;;;;20.98;62.86;102010.69;5034682;28;20021;-61
2021/08/30 11:15:14;;;;;;;10.60;5.32;;;;;;;20.97;62.96;102014.28;5034929;28;20025;-62
2021/08/30 11:17:39;;;;;;;6.80;4.28;;;;;;;20.97;62.97;102008.97;5034004;28;20116;-61
2021/08/30 11:20:06;;;;;;;7.80;5.07;;;;;;;20.96;63.11;102012.56;5034246;28;20026;-62
2021/08/30 11:22:32;;;;;;;9.82;4.47;;;;;;;20.97;63.25;102016.09;5034553;28;20043;-62
2021/08/30 11:24:59;;;;;;;7.30;4.30;;;;;;;20.96;62.95;102006.44;5033638;28;20354;-60
2021/08/30 11:27:33;;;;;;;7.50;4.68;;;;;;;20.96;63.34;102014.38;5034358;28;20048;-60
2021/08/30 11:30:07;;;;;;;;;;;;;;;20.94;62.99;102008.38;5034046;28;20029;-61